createdAt,value
2022-08-26T00:02:01.712Z,2.88
2022-08-26T00:04:32.055Z,3.58
2022-08-26T00:07:00.820Z,4.32
2022-08-26T00:09:29.617Z,3.30
2022-08-26T00:11:58.421Z,3.65
2022-08-26T00:14:30.991Z,2.65
2022-08-26T00:17:00.590Z,3.80
2022-08-26T00:19:29.691Z,6.45
2022-08-26T00:21:58.328Z,2.80
2022-08-26T00:24:27.031Z,3.60
2022-08-26T00:26:55.776Z,4.57
2022-08-26T00:29:24.546Z,4.72
2022-08-26T00:31:54.851Z,5.40
2022-08-26T00:34:23.655Z,3.60
2022-08-26T00:36:52.435Z,5.22
2022-08-26T00:39:21.751Z,9.25
2022-08-26T00:41:50.691Z,10.00
2022-08-26T00:44:19.729Z,10.50
2022-08-26T00:46:56.516Z,12.57
2022-08-26T00:49:40.192Z,20.27
2022-08-26T00:52:16.519Z,20.77
2022-08-26T00:54:54.473Z,22.38
2022-08-26T00:57:25.540Z,17.23
2022-08-26T01:00:00.498Z,17.43
2022-08-26T01:02:31.020Z,14.77
2022-08-26T01:05:06.656Z,11.77
2022-08-26T01:07:37.075Z,10.02
2022-08-26T01:10:12.461Z,10.13
2022-08-26T01:12:47.673Z,9.37
2022-08-26T01:15:24.196Z,9.10
2022-08-26T01:17:54.383Z,8.98
2022-08-26T01:20:47.366Z,9.70
2022-08-26T01:23:17.673Z,8.88
2022-08-26T01:25:57.836Z,13.63
2022-08-26T01:28:32.571Z,10.65
2022-08-26T01:31:25.962Z,12.48
2022-08-26T01:34:02.971Z,14.88
2022-08-26T01:36:32.697Z,18.08
2022-08-26T01:39:02.848Z,18.67
2022-08-26T01:41:36.586Z,12.95
2022-08-26T01:44:10.122Z,11.13
2022-08-26T01:46:39.104Z,12.95
2022-08-26T01:49:09.968Z,11.70
2022-08-26T01:51:44.525Z,5.67
2022-08-26T01:54:15.170Z,6.82
2022-08-26T01:56:44.462Z,7.18
2022-08-26T01:59:18.914Z,9.68
2022-08-26T02:01:48.516Z,10.07
2022-08-26T02:04:26.851Z,7.60
2022-08-26T02:06:57.715Z,5.70
2022-08-26T02:09:29.270Z,11.68
2022-08-26T02:12:02.559Z,8.30
2022-08-26T02:14:43.570Z,5.97
2022-08-26T02:17:13.642Z,4.50
2022-08-26T02:19:48.646Z,5.38
2022-08-26T02:22:22.156Z,3.33
2022-08-26T02:24:57.857Z,3.38
2022-08-26T02:27:32.029Z,6.03
2022-08-26T02:30:10.587Z,4.47
2022-08-26T02:32:41.357Z,6.97
2022-08-26T02:35:12.645Z,2.92
2022-08-26T02:37:41.842Z,4.57
2022-08-26T02:40:16.573Z,3.92
2022-08-26T02:42:45.278Z,4.87
2022-08-26T02:45:14.257Z,5.07
2022-08-26T02:47:46.153Z,4.75
2022-08-26T02:50:15.564Z,5.10
2022-08-26T02:52:45.468Z,3.63
2022-08-26T02:55:16.625Z,3.50
2022-08-26T02:57:45.382Z,4.50
2022-08-26T03:00:16.128Z,5.30
2022-08-26T03:02:45.202Z,9.68
2022-08-26T03:05:14.515Z,63.67
2022-08-26T03:07:45.229Z,7.33
2022-08-26T03:10:16.522Z,5.28
2022-08-26T03:12:47.383Z,4.20
2022-08-26T03:15:19.596Z,4.38
2022-08-26T03:17:50.243Z,3.80
2022-08-26T03:20:20.137Z,5.20
2022-08-26T03:22:51.563Z,5.25
2022-08-26T03:25:22.643Z,3.45
2022-08-26T03:27:52.539Z,5.60
2022-08-26T03:30:44.633Z,4.93
2022-08-26T03:33:15.382Z,3.63
2022-08-26T03:35:47.848Z,4.20
2022-08-26T03:38:20.545Z,4.15
2022-08-26T03:40:51.169Z,6.10
2022-08-26T03:43:22.481Z,3.95
2022-08-26T03:45:51.612Z,6.23
2022-08-26T03:48:21.414Z,4.82
2022-08-26T03:50:50.512Z,4.10
2022-08-26T03:53:20.623Z,5.50
2022-08-26T03:55:51.979Z,7.32
2022-08-26T03:58:21.231Z,9.60
2022-08-26T04:00:55.601Z,6.53
2022-08-26T04:03:38.955Z,7.90
2022-08-26T04:06:08.575Z,6.93
2022-08-26T04:08:38.821Z,12.93
2022-08-26T04:11:10.601Z,15.90
2022-08-26T04:13:39.351Z,13.57
2022-08-26T04:16:08.834Z,85.65
2022-08-26T04:18:40.591Z,13.75
2022-08-26T04:21:15.912Z,11.18
2022-08-26T04:23:47.166Z,8.77
2022-08-26T04:26:18.203Z,7.72
2022-08-26T04:28:47.340Z,8.63
2022-08-26T04:31:18.363Z,8.27
2022-08-26T04:33:51.441Z,6.82
2022-08-26T04:36:20.440Z,6.07
2022-08-26T04:38:50.749Z,7.97
2022-08-26T04:41:22.104Z,3.83
2022-08-26T04:43:51.104Z,6.30
2022-08-26T04:46:24.505Z,4.60
2022-08-26T04:48:55.219Z,4.60
2022-08-26T04:51:28.059Z,6.45
2022-08-26T04:53:57.701Z,7.30
2022-08-26T04:56:30.622Z,9.05
2022-08-26T04:58:59.489Z,13.75
2022-08-26T05:01:29.203Z,15.70
2022-08-26T05:03:58.254Z,15.98
2022-08-26T05:06:28.142Z,8.90
2022-08-26T05:08:56.951Z,11.45
2022-08-26T05:11:29.624Z,8.13
2022-08-26T05:14:02.139Z,6.67
2022-08-26T05:16:31.371Z,6.25
2022-08-26T05:19:00.330Z,6.05
2022-08-26T05:21:30.230Z,5.28
2022-08-26T05:23:59.056Z,5.07
2022-08-26T05:26:32.144Z,8.37
2022-08-26T05:29:00.852Z,8.43
2022-08-26T05:31:32.673Z,5.25
2022-08-26T05:34:03.736Z,5.13
2022-08-26T05:36:38.397Z,5.85
2022-08-26T05:39:10.382Z,5.23
2022-08-26T05:41:44.725Z,8.25
2022-08-26T05:44:18.842Z,11.23
2022-08-26T05:46:47.803Z,9.02
2022-08-26T05:49:17.077Z,9.88
2022-08-26T05:51:48.022Z,11.57
2022-08-26T05:54:21.986Z,11.75
2022-08-26T05:56:53.222Z,12.85
2022-08-26T05:59:24.593Z,14.40
2022-08-26T06:01:54.837Z,14.45
2022-08-26T06:04:28.112Z,12.40
2022-08-26T06:06:58.158Z,12.88
2022-08-26T06:09:27.475Z,20.45
2022-08-26T06:11:59.020Z,25.50
2022-08-26T06:14:27.964Z,14.43
2022-08-26T06:16:57.634Z,10.67
2022-08-26T06:19:32.765Z,8.68
2022-08-26T06:22:23.867Z,9.52
2022-08-26T06:25:10.020Z,9.77
2022-08-26T06:27:41.082Z,16.33
2022-08-26T06:30:11.534Z,11.50
2022-08-26T06:32:41.286Z,9.70
2022-08-26T06:35:11.956Z,8.73
2022-08-26T06:37:42.866Z,9.90
2022-08-26T06:40:12.859Z,9.88
2022-08-26T06:42:43.017Z,8.60
2022-08-26T06:45:12.732Z,6.03
2022-08-26T06:47:42.010Z,7.65
2022-08-26T06:50:11.541Z,6.50
2022-08-26T06:52:43.368Z,5.45
2022-08-26T06:55:12.052Z,7.30
2022-08-26T06:57:42.165Z,4.05
2022-08-26T07:00:12.859Z,5.65
2022-08-26T07:02:46.824Z,5.38
2022-08-26T07:05:16.422Z,4.70
2022-08-26T07:07:45.104Z,6.27
2022-08-26T07:10:14.971Z,7.03
2022-08-26T07:12:47.071Z,7.57
2022-08-26T07:15:17.108Z,7.82
2022-08-26T07:17:46.070Z,6.78
2022-08-26T07:20:15.263Z,6.63
2022-08-26T07:22:44.302Z,6.10
2022-08-26T07:25:13.265Z,4.25
2022-08-26T07:27:42.118Z,5.53
2022-08-26T07:30:14.786Z,6.57
2022-08-26T07:32:43.817Z,7.57
2022-08-26T07:35:12.525Z,6.13
2022-08-26T07:37:41.270Z,5.20
2022-08-26T07:40:15.287Z,7.93
2022-08-26T07:42:54.994Z,6.32
2022-08-26T07:45:28.697Z,7.77
2022-08-26T07:47:59.291Z,4.57
2022-08-26T07:50:50.206Z,6.50
2022-08-26T07:53:18.029Z,6.65
2022-08-26T07:55:48.530Z,5.03
2022-08-26T07:58:18.236Z,4.97
2022-08-26T08:00:49.065Z,6.65
2022-08-26T08:03:20.651Z,4.38
2022-08-26T08:05:49.516Z,6.05
2022-08-26T08:08:27.652Z,3.90
2022-08-26T08:10:58.594Z,5.30
2022-08-26T08:13:39.935Z,5.70
2022-08-26T08:16:12.765Z,5.90
2022-08-26T08:18:41.751Z,6.47
2022-08-26T08:21:21.097Z,6.13
2022-08-26T08:23:53.244Z,6.10
2022-08-26T08:26:25.383Z,6.85
2022-08-26T08:28:58.384Z,6.78
2022-08-26T08:34:24.709Z,4.68
2022-08-26T08:36:54.662Z,6.30
2022-08-26T08:39:24.374Z,6.57
2022-08-26T08:42:28.345Z,8.30
2022-08-26T08:45:04.455Z,4.85
2022-08-26T08:47:40.030Z,4.75
2022-08-26T08:50:27.455Z,6.00
2022-08-26T08:53:12.109Z,5.70
2022-08-26T08:55:54.541Z,7.93
2022-08-26T08:58:33.089Z,8.25
2022-08-26T09:01:07.149Z,5.53
2022-08-26T09:03:56.543Z,5.17
2022-08-26T09:06:27.766Z,4.93
2022-08-26T09:08:58.514Z,3.92
2022-08-26T09:11:31.633Z,5.13
2022-08-26T09:14:00.971Z,6.03
2022-08-26T09:16:41.524Z,6.97
2022-08-26T09:19:23.362Z,7.32
2022-08-26T09:21:57.823Z,9.27
2022-08-26T09:24:28.517Z,11.75
2022-08-26T09:26:59.421Z,10.43
2022-08-26T09:29:31.899Z,10.13
2022-08-26T09:32:22.177Z,9.10
2022-08-26T09:34:59.761Z,8.88
2022-08-26T09:40:29.455Z,13.05
2022-08-26T09:43:22.656Z,10.73
2022-08-26T09:45:59.501Z,10.13
2022-08-26T09:48:35.450Z,11.88
2022-08-26T09:51:28.079Z,11.40
2022-08-26T09:54:00.495Z,9.55
2022-08-26T09:56:33.273Z,8.87
2022-08-26T09:59:04.066Z,12.43
2022-08-26T10:01:38.339Z,17.10
2022-08-26T10:04:11.257Z,17.83
2022-08-26T10:06:55.309Z,16.48
2022-08-26T10:09:26.753Z,14.07
2022-08-26T10:12:01.609Z,16.52
2022-08-26T10:14:39.420Z,10.95
2022-08-26T10:17:16.226Z,8.93
2022-08-26T10:19:57.148Z,12.23
2022-08-26T10:22:36.673Z,6.73
2022-08-26T10:25:14.854Z,7.80
2022-08-26T10:27:53.449Z,9.00
2022-08-26T10:30:28.824Z,8.63
2022-08-26T10:33:04.617Z,11.77
2022-08-26T10:35:37.305Z,5.40
2022-08-26T10:38:14.484Z,6.88
2022-08-26T10:40:56.301Z,7.28
2022-08-26T10:43:29.768Z,6.30
2022-08-26T10:46:05.027Z,7.18
2022-08-26T10:48:44.944Z,5.67
2022-08-26T10:51:16.545Z,5.50
2022-08-26T10:53:58.396Z,4.60
2022-08-26T10:56:43.543Z,7.25
2022-08-26T10:59:25.093Z,7.15
2022-08-26T11:02:09.582Z,6.20
2022-08-26T11:04:52.187Z,8.35
2022-08-26T11:07:42.993Z,6.13
2022-08-26T11:10:57.910Z,6.20
2022-08-26T11:14:03.201Z,6.75
2022-08-26T11:16:43.436Z,4.73
2022-08-26T11:20:01.045Z,4.63
2022-08-26T11:22:34.939Z,5.40
2022-08-26T11:25:16.094Z,5.35
2022-08-26T11:27:59.786Z,4.00
2022-08-26T11:30:56.987Z,5.70
2022-08-26T11:34:01.032Z,3.90
2022-08-26T11:36:57.041Z,5.72
2022-08-26T11:39:38.385Z,11.68
2022-08-26T11:42:28.552Z,6.45
2022-08-26T11:44:59.860Z,5.97
2022-08-26T11:47:33.298Z,7.82
2022-08-26T11:50:15.802Z,6.15
2022-08-26T11:52:54.498Z,7.10
2022-08-26T11:55:24.710Z,6.22
2022-08-26T11:58:00.883Z,8.70
2022-08-26T12:00:34.623Z,8.30
2022-08-26T12:03:09.540Z,7.90
2022-08-26T12:05:46.325Z,8.45
2022-08-26T12:08:21.547Z,7.93
2022-08-26T12:10:50.775Z,10.30
2022-08-26T12:13:27.245Z,8.18
2022-08-26T12:15:59.242Z,8.95
2022-08-26T12:18:31.869Z,8.18
2022-08-26T12:21:12.316Z,7.50
2022-08-26T12:23:47.754Z,9.23
2022-08-26T12:26:28.272Z,7.15
2022-08-26T12:29:01.589Z,7.45
2022-08-26T12:31:46.708Z,8.55
2022-08-26T12:34:18.591Z,11.43
2022-08-26T12:36:50.450Z,7.30
2022-08-26T12:39:29.245Z,8.57
2022-08-26T12:41:59.982Z,11.50
2022-08-26T12:44:54.110Z,14.68
2022-08-26T12:47:39.030Z,14.52
2022-08-26T12:50:20.157Z,15.17
2022-08-26T12:53:01.607Z,17.10
2022-08-26T12:55:41.535Z,11.75
2022-08-26T12:58:27.349Z,18.80
2022-08-26T13:01:26.503Z,26.40
2022-08-26T13:03:59.140Z,30.17
2022-08-26T13:06:31.584Z,39.47
2022-08-26T13:09:06.322Z,38.80
2022-08-26T13:11:59.177Z,34.42
2022-08-26T13:14:29.342Z,16.38
2022-08-26T13:16:59.459Z,10.60
2022-08-26T13:19:29.655Z,10.32
2022-08-26T13:22:01.258Z,9.38
2022-08-26T13:24:35.774Z,9.60
2022-08-26T13:27:08.113Z,10.75
2022-08-26T13:29:37.635Z,10.80
2022-08-26T13:32:09.911Z,9.35
2022-08-26T13:34:39.645Z,10.38
2022-08-26T13:37:08.616Z,9.95
2022-08-26T13:39:38.175Z,11.68
2022-08-26T13:42:07.030Z,18.20
2022-08-26T13:44:36.051Z,16.17
2022-08-26T13:47:06.282Z,12.85
2022-08-26T13:49:34.981Z,11.82
2022-08-26T13:52:04.197Z,13.27
2022-08-26T13:54:33.409Z,26.83
2022-08-26T13:57:02.268Z,6.68
2022-08-26T13:59:30.886Z,10.32
2022-08-26T14:02:00.723Z,7.85
2022-08-26T14:04:30.881Z,6.85
2022-08-26T14:06:59.573Z,7.20
2022-08-26T14:09:28.235Z,6.13
2022-08-26T14:11:58.116Z,8.68
2022-08-26T14:14:27.982Z,7.25
2022-08-26T14:16:59.375Z,9.25
2022-08-26T14:19:32.585Z,8.47
2022-08-26T14:22:02.484Z,11.60
2022-08-26T14:24:31.333Z,8.63
2022-08-26T14:27:00.097Z,11.55
2022-08-26T14:29:28.818Z,18.33
2022-08-26T14:32:00.212Z,8.67
2022-08-26T14:34:30.378Z,9.68
2022-08-26T14:36:59.097Z,8.13
2022-08-26T14:39:37.225Z,12.60
2022-08-26T14:42:06.487Z,10.65
2022-08-26T14:44:35.588Z,10.77
2022-08-26T14:47:07.330Z,13.38
2022-08-26T14:49:37.872Z,31.10
2022-08-26T14:52:06.698Z,13.00
2022-08-26T14:54:34.442Z,13.55
2022-08-26T14:57:07.298Z,7.30
2022-08-26T14:59:38.890Z,14.90
2022-08-26T15:02:10.694Z,21.83
2022-08-26T15:04:44.091Z,10.75
2022-08-26T15:07:13.258Z,7.35
2022-08-26T15:09:42.029Z,8.30
2022-08-26T15:12:10.912Z,8.77
2022-08-26T15:14:39.653Z,8.50
2022-08-26T15:17:09.848Z,6.38
2022-08-26T15:19:38.800Z,13.75
2022-08-26T15:22:08.786Z,13.03
2022-08-26T15:24:37.901Z,39.63
2022-08-26T15:27:06.790Z,15.38
2022-08-26T15:29:36.321Z,7.80
2022-08-26T15:32:06.332Z,6.20
2022-08-26T15:34:35.016Z,8.40
2022-08-26T15:37:03.674Z,7.95
2022-08-26T15:39:35.585Z,20.90
2022-08-26T15:42:05.059Z,8.75
2022-08-26T15:44:34.199Z,29.92
2022-08-26T15:47:03.085Z,10.17
2022-08-26T15:49:33.051Z,12.73
2022-08-26T15:52:03.464Z,6.00
2022-08-26T15:54:35.658Z,7.45
2022-08-26T15:57:07.175Z,7.97
2022-08-26T15:59:38.484Z,7.33
2022-08-26T16:02:07.498Z,6.55
2022-08-26T16:04:36.301Z,7.78
2022-08-26T16:07:05.851Z,7.55
2022-08-26T16:09:36.415Z,6.60
2022-08-26T16:12:06.099Z,6.37
2022-08-26T16:14:35.319Z,7.90
2022-08-26T16:17:04.665Z,6.53
2022-08-26T16:19:33.606Z,6.88
2022-08-26T16:22:02.707Z,7.60
2022-08-26T16:24:31.861Z,9.77
2022-08-26T16:27:02.479Z,9.15
2022-08-26T16:29:33.003Z,6.93
2022-08-26T16:32:08.768Z,8.23
2022-08-26T16:34:37.881Z,6.72
2022-08-26T16:37:16.311Z,6.20
2022-08-26T16:39:45.362Z,7.40
2022-08-26T16:42:15.968Z,7.32
2022-08-26T16:44:47.534Z,9.25
2022-08-26T16:47:18.523Z,5.50
2022-08-26T16:49:47.833Z,5.30
2022-08-26T16:52:17.268Z,7.80
2022-08-26T16:54:46.518Z,6.85
2022-08-26T16:57:17.283Z,7.00
2022-08-26T16:59:46.551Z,7.28
2022-08-26T17:02:15.877Z,12.33
2022-08-26T17:04:47.137Z,7.10
2022-08-26T17:07:19.146Z,7.05
2022-08-26T17:09:48.151Z,7.28
2022-08-26T17:12:19.118Z,10.43
2022-08-26T17:14:48.330Z,11.97
2022-08-26T17:17:17.636Z,7.82
2022-08-26T17:19:47.465Z,11.07
2022-08-26T17:22:17.869Z,8.20
2022-08-26T17:24:47.528Z,8.65
2022-08-26T17:27:18.366Z,10.47
2022-08-26T17:29:47.801Z,10.63
2022-08-26T17:32:17.349Z,7.70
2022-08-26T17:34:46.718Z,10.40
2022-08-26T17:37:18.099Z,9.27
2022-08-26T17:39:47.460Z,10.07
2022-08-26T17:42:18.564Z,7.40
2022-08-26T17:44:51.400Z,7.95
2022-08-26T17:47:20.811Z,8.77
2022-08-26T17:49:50.272Z,7.55
2022-08-26T17:52:21.282Z,8.80
2022-08-26T17:54:53.645Z,8.88
2022-08-26T17:57:24.722Z,7.47
2022-08-26T17:59:54.404Z,10.07
2022-08-26T18:02:34.098Z,9.32
2022-08-26T18:05:03.487Z,9.27
2022-08-26T18:07:33.800Z,10.07
2022-08-26T18:10:16.846Z,10.82
2022-08-26T18:12:48.724Z,10.57
2022-08-26T18:15:21.380Z,12.52
2022-08-26T18:17:53.394Z,8.83
2022-08-26T18:20:23.110Z,8.90
2022-08-26T18:22:52.551Z,9.82
2022-08-26T18:25:22.103Z,12.00
2022-08-26T18:27:52.701Z,9.35
2022-08-26T18:30:23.907Z,6.77
2022-08-26T18:32:53.936Z,8.35
2022-08-26T18:35:23.365Z,10.32
2022-08-26T18:37:52.796Z,7.57
2022-08-26T18:40:22.551Z,9.85
2022-08-26T18:42:54.172Z,10.70
2022-08-26T18:45:24.555Z,9.35
2022-08-26T18:47:54.101Z,9.10
2022-08-26T18:50:23.732Z,9.25
2022-08-26T18:52:53.150Z,9.27
2022-08-26T18:55:23.167Z,9.30
2022-08-26T18:57:56.792Z,8.02
2022-08-26T19:00:26.685Z,9.43
2022-08-26T19:02:56.346Z,9.68
2022-08-26T19:05:26.169Z,9.73
2022-08-26T19:07:56.811Z,7.93
2022-08-26T19:10:26.389Z,11.75
2022-08-26T19:13:02.387Z,9.57
2022-08-26T19:15:32.114Z,8.73
2022-08-26T19:18:03.631Z,9.98
2022-08-26T19:20:33.129Z,9.57
2022-08-26T19:23:10.618Z,7.75
2022-08-26T19:25:54.730Z,10.15
2022-08-26T19:28:25.738Z,10.25
2022-08-26T19:30:57.169Z,8.45
2022-08-26T19:33:27.291Z,8.57
2022-08-26T19:35:56.920Z,9.20
2022-08-26T19:38:27.829Z,10.43
2022-08-26T19:40:58.807Z,12.02
2022-08-26T19:43:29.788Z,10.20
2022-08-26T19:46:11.015Z,11.93
2022-08-26T19:48:40.787Z,11.75
2022-08-26T19:51:10.355Z,9.52
2022-08-26T19:53:45.105Z,9.52
2022-08-26T19:56:15.321Z,11.35
2022-08-26T19:58:46.529Z,9.63
2022-08-26T20:01:17.023Z,11.65
2022-08-26T20:03:48.581Z,10.77
2022-08-26T20:06:20.331Z,9.80
2022-08-26T20:08:53.870Z,10.40
2022-08-26T20:11:26.861Z,9.53
2022-08-26T20:13:57.978Z,9.95
2022-08-26T20:16:27.484Z,9.13
2022-08-26T20:19:13.974Z,10.73
2022-08-26T20:21:44.395Z,10.93
2022-08-26T20:24:17.521Z,10.10
2022-08-26T20:26:47.451Z,10.80
2022-08-26T20:29:19.950Z,12.18
2022-08-26T20:31:54.796Z,11.20
2022-08-26T20:34:24.728Z,12.43
2022-08-26T20:36:56.887Z,11.17
2022-08-26T20:39:28.962Z,11.60
2022-08-26T20:41:59.122Z,11.73
2022-08-26T20:44:30.003Z,14.82
2022-08-26T20:47:00.358Z,14.57
2022-08-26T20:49:32.219Z,12.33
2022-08-26T20:52:06.707Z,11.88
2022-08-26T20:54:38.964Z,12.50
2022-08-26T20:57:07.872Z,26.10
2022-08-26T20:59:38.360Z,21.90
2022-08-26T21:02:07.226Z,21.03
2022-08-26T21:04:36.585Z,16.52
2022-08-26T21:07:05.867Z,19.38
2022-08-26T21:09:34.839Z,16.80
2022-08-26T21:12:04.194Z,12.35
2022-08-26T21:14:33.271Z,19.90
2022-08-26T21:17:04.004Z,20.00
2022-08-26T21:19:32.819Z,17.48
2022-08-26T21:22:01.743Z,16.58
2022-08-26T21:24:30.481Z,18.48
2022-08-26T21:26:59.329Z,17.97
2022-08-26T21:29:28.202Z,13.98
2022-08-26T21:31:57.582Z,13.00
2022-08-26T21:34:27.872Z,14.70
2022-08-26T21:36:56.929Z,21.52
2022-08-26T21:39:26.869Z,14.50
2022-08-26T21:41:55.638Z,13.00
2022-08-26T21:44:24.298Z,15.07
2022-08-26T21:46:53.782Z,12.52
2022-08-26T21:49:22.480Z,12.43
2022-08-26T21:51:55.431Z,16.83
2022-08-26T21:54:24.378Z,14.75
2022-08-26T21:56:53.336Z,18.05
2022-08-26T21:59:22.112Z,20.75
2022-08-26T22:01:51.312Z,22.95
2022-08-26T22:04:20.104Z,19.40
2022-08-26T22:06:52.004Z,24.92
2022-08-26T22:09:25.217Z,23.80
2022-08-26T22:11:56.929Z,41.20
2022-08-26T22:14:30.451Z,45.90
2022-08-26T22:17:02.590Z,31.47
2022-08-26T22:19:31.957Z,29.90
2022-08-26T22:22:03.725Z,47.78
2022-08-26T22:24:33.935Z,58.15
2022-08-26T22:27:02.737Z,50.95
2022-08-26T22:29:32.368Z,45.90
2022-08-26T22:32:02.268Z,50.47
2022-08-26T22:34:31.088Z,46.60
2022-08-26T22:36:59.843Z,40.47
2022-08-26T22:39:28.646Z,38.15
2022-08-26T22:41:58.923Z,23.27
2022-08-26T22:44:27.711Z,41.15
2022-08-26T22:46:57.004Z,27.02
2022-08-26T22:49:26.160Z,20.77
2022-08-26T22:51:54.967Z,17.83
2022-08-26T22:54:23.640Z,13.93
2022-08-26T22:56:52.364Z,28.95
2022-08-26T22:59:22.687Z,23.10
2022-08-26T23:01:51.787Z,25.70
2022-08-26T23:04:21.105Z,14.00
2022-08-26T23:06:49.893Z,19.17
2022-08-26T23:09:20.505Z,16.58
2022-08-26T23:11:50.914Z,12.23
2022-08-26T23:14:21.498Z,14.90
2022-08-26T23:16:50.765Z,14.48
2022-08-26T23:19:23.121Z,27.83
2022-08-26T23:21:52.174Z,19.67
2022-08-26T23:24:21.214Z,17.23
2022-08-26T23:26:50.094Z,13.25
2022-08-26T23:29:18.992Z,18.15
2022-08-26T23:31:49.248Z,14.53
2022-08-26T23:34:46.822Z,15.75
2022-08-26T23:37:16.933Z,25.35
2022-08-26T23:39:46.612Z,14.10
2022-08-26T23:42:15.517Z,12.80
2022-08-26T23:44:44.289Z,16.00
2022-08-26T23:47:15.243Z,17.70
2022-08-26T23:49:44.212Z,14.15
2022-08-26T23:52:30.794Z,12.63
2022-08-26T23:54:59.616Z,11.63
2022-08-26T23:57:28.351Z,10.03
2022-08-26T23:59:58.006Z,10.63
